Have a Safe July 4th! 

Flight Track Log - Related Links

Times and Time Zones

All times are in EDT time to prevent confusion due to time zone crossing. See the BER7688 flight status page for this flight to view local times or setup timezone preferences in your user account.

Time Position Orientation Groundspeed Altitude Reporting Facility
EDT Latitude Longitude Course Direction KTS MPH feet Rate Location/Type
Sat 09:37:00 AM 40.8247 0.2193 304° West  Level Estimated
Sat 09:38:00 AM 40.8765 0.1123 303° West  Level Estimated
Sat 09:39:00 AM 40.9283 0.0051 303° West  Level Estimated
Sat 09:40:00 AM 40.9799 -0.1023 303° West  Level Estimated
Sat 09:41:00 AM 41.0314 -0.2099 302° West  Level Estimated
Sat 09:42:00 AM 41.0829 -0.3176 302° West  Level Estimated
Sat 09:43:00 AM 41.1342 -0.4255 302° West  Level Estimated
Sat 09:44:00 AM 41.1855 -0.5335 302° West  Level Estimated
Sat 09:45:00 AM 41.2366 -0.6417 302° West  Level Estimated
Sat 09:46:00 AM 41.2876 -0.7501 302° West  Level Estimated
Sat 09:47:00 AM 41.3386 -0.8587 302° West  Level Estimated
Sat 09:48:00 AM 41.3894 -0.9674 302° West  Level Estimated
Sat 09:49:00 AM 41.4401 -1.0763 302° West  Level Estimated
Sat 09:50:00 AM 41.4908 -1.1854 302° West  Level Estimated
Sat 09:51:00 AM 41.5413 -1.2946 302° West  Level Estimated
Sat 09:52:00 AM 41.5917 -1.4040 302° West  Level Estimated
Sat 09:53:00 AM 41.6420 -1.5136 302° West  Level Estimated
Sat 09:54:00 AM 41.6922 -1.6234 302° West  Level Estimated
Sat 09:55:00 AM 41.7423 -1.7333 301° West  Level Estimated
Sat 09:56:00 AM 41.7923 -1.8434 301° West  Level Estimated
Sat 09:57:00 AM 41.8422 -1.9537 301° West  Level Estimated
Sat 09:58:00 AM 41.8920 -2.0641 301° West  Level Estimated
Sat 09:59:00 AM 41.9417 -2.1747 301° West  Level Estimated
Sat 10:00:00 AM 41.9913 -2.2855 301° West  Level Estimated
Sat 10:01:00 AM 42.0408 -2.3965 301° West  Level Estimated
Sat 10:02:00 AM 42.0901 -2.5076 301° West  Level Estimated
Sat 10:03:00 AM 42.1394 -2.6189 301° West  Level Estimated
Sat 10:04:00 AM 42.1885 -2.7304 301° West  Level Estimated
Sat 10:05:00 AM 42.2376 -2.8421 301° West  Level Estimated
Sat 10:06:00 AM 42.2865 -2.9539 301° West  Level Estimated
Sat 10:07:00 AM 42.3353 -3.0659 301° West  Level Estimated
Sat 10:08:00 AM 42.3841 -3.1781 300° West  Level Estimated
Sat 10:09:00 AM 42.4327 -3.2904 300° West  Level Estimated
Sat 10:10:00 AM 42.4812 -3.4029 300° West  Level Estimated
Sat 10:11:00 AM 42.5296 -3.5156 300° West  Level Estimated
Sat 10:12:00 AM 42.5778 -3.6285 300° West  Level Estimated
Sat 10:13:00 AM 42.6260 -3.7415 300° West  Level Estimated
Sat 10:14:00 AM 42.6740 -3.8548 300° West  Level Estimated
Sat 10:15:00 AM 42.7220 -3.9681 300° West  Level Estimated
Sat 10:16:00 AM 42.7698 -4.0817 300° West  Level Estimated
Sat 10:17:00 AM 42.8175 -4.1955 300° West  Level Estimated
Sat 10:18:00 AM 42.8651 -4.3094 300° West  Level Estimated
Sat 10:19:00 AM 42.9126 -4.4235 300° West  Level Estimated
Sat 10:20:00 AM 42.9600 -4.5378 300° West  Level Estimated
Sat 10:21:00 AM 43.0073 -4.6522 299° West  Level Estimated
Sat 10:22:00 AM 43.0544 -4.7668 299° West  Level Estimated
Sat 10:23:00 AM 43.1015 -4.8816 299° West  Level Estimated
Sat 10:24:00 AM 43.1484 -4.9966 299° West  Level Estimated
Sat 10:25:00 AM 43.1952 -5.1118 299° West  Level Estimated
Sat 10:26:00 AM 43.2419 -5.2271 299° West  Level Estimated
Sat 10:27:00 AM 43.2884 -5.3426 299° West  Level Estimated
Sat 10:28:00 AM 43.3349 -5.4583 299° West  Level Estimated
Sat 10:29:00 AM 43.3812 -5.5741 299° West  Level Estimated
Sat 10:30:00 AM 43.4275 -5.6902 299° West  Level Estimated
Sat 10:31:00 AM 43.4736 -5.8064 299° West  Level Estimated
Sat 10:32:00 AM 43.5196 -5.9228 299° West  Level Estimated
Sat 10:33:00 AM 43.5636 -6.0346 299° West  Level Estimated
Sat 10:34:00 AM 43.5636 -6.0346 206° Southwest  Level Estimated
Sat 10:35:00 AM 43.5636 -6.0346 206° Southwest  Level Estimated
Sat 10:36:00 AM 43.5636 -6.0346 206° Southwest  Level Estimated
Sat 10:37:00 AM 43.5636 -6.0346 206° Southwest  Level Estimated
Sat 10:38:00 AM 43.5636 -6.0346 206° Southwest  Level Estimated
Sat 10:39:00 AM 43.5636 -6.0346 206° Southwest  Level Estimated
Sat 10:40:00 AM 43.5636 -6.0346 206° Southwest  Level Estimated
Sat 10:41:00 AM 43.5636 -6.0346 206° Southwest  Level Estimated
Sat 10:42:00 AM 43.5636 -6.0346 206° Southwest  Level Estimated
Sat 10:43:00 AM 43.5636 -6.0346 206° Southwest  Level Estimated
Sat 10:44:00 AM 43.5636 -6.0346 206° Southwest  Level Estimated
Sat 10:45:00 AM 43.5636 -6.0346 206° Southwest  Level Estimated
Sat 10:46:00 AM 43.5636 -6.0346 206° Southwest  Level Estimated
Sat 10:47:00 AM 43.5636 -6.0346 206° Southwest  Level Estimated
Sat 10:48:00 AM 43.5636 -6.0346 206° Southwest  Level Estimated
Sat 10:49:00 AM 43.5636 -6.0346 206° Southwest  Level Estimated

Login

Don't have an account? Register now (free) for customized features, flight alerts, and more!